sensor_id;sensor_type;location;lat;lon;timestamp;pressure;altitude;pressure_sealevel;temperature;humidity
76694;BME280;65625;52.136;5.424;2023-02-15T00:02:00;103057.53;;;1.14;90.09
76694;BME280;65625;52.136;5.424;2023-02-15T00:04:26;103059.31;;;1.15;91.00
76694;BME280;65625;52.136;5.424;2023-02-15T00:07:16;103050.44;;;1.14;90.57
76694;BME280;65625;52.136;5.424;2023-02-15T00:09:45;103048.69;;;1.13;90.40
76694;BME280;65625;52.136;5.424;2023-02-15T00:12:12;103049.56;;;1.11;91.00
76694;BME280;65625;52.136;5.424;2023-02-15T00:14:39;103044.25;;;1.11;90.76
76694;BME280;65625;52.136;5.424;2023-02-15T00:17:05;103040.69;;;1.10;90.49
76694;BME280;65625;52.136;5.424;2023-02-15T00:19:32;103045.16;;;1.10;89.92
76694;BME280;65625;52.136;5.424;2023-02-15T00:21:58;103041.59;;;1.05;90.06
76694;BME280;65625;52.136;5.424;2023-02-15T00:24:25;103037.16;;;1.04;90.53
76694;BME280;65625;52.136;5.424;2023-02-15T00:26:52;103043.38;;;1.04;90.61
76694;BME280;65625;52.136;5.424;2023-02-15T00:29:19;103042.47;;;1.04;90.55
76694;BME280;65625;52.136;5.424;2023-02-15T00:31:46;103049.56;;;1.02;90.81
76694;BME280;65625;52.136;5.424;2023-02-15T00:34:21;103046.00;;;0.97;90.19
76694;BME280;65625;52.136;5.424;2023-02-15T00:36:49;103046.91;;;0.94;90.93
76694;BME280;65625;52.136;5.424;2023-02-15T00:39:17;103042.47;;;0.92;90.91
76694;BME280;65625;52.136;5.424;2023-02-15T00:41:44;103038.06;;;0.91;90.13
76694;BME280;65625;52.136;5.424;2023-02-15T00:44:11;103038.97;;;0.88;91.07
76694;BME280;65625;52.136;5.424;2023-02-15T00:46:38;103030.97;;;0.82;90.69
76694;BME280;65625;52.136;5.424;2023-02-15T00:49:08;103018.59;;;0.78;90.48
76694;BME280;65625;52.136;5.424;2023-02-15T00:51:35;103016.81;;;0.74;90.91
76694;BME280;65625;52.136;5.424;2023-02-15T00:54:02;103017.69;;;0.75;90.22
76694;BME280;65625;52.136;5.424;2023-02-15T00:56:28;103023.88;;;0.71;90.88
76694;BME280;65625;52.136;5.424;2023-02-15T00:58:55;103028.31;;;0.72;90.82
76694;BME280;65625;52.136;5.424;2023-02-15T01:01:22;103023.00;;;0.70;91.24
76694;BME280;65625;52.136;5.424;2023-02-15T01:03:50;103028.31;;;0.67;90.65
76694;BME280;65625;52.136;5.424;2023-02-15T01:06:17;103024.78;;;0.62;90.98
76694;BME280;65625;52.136;5.424;2023-02-15T01:08:45;103025.66;;;0.64;91.05
76694;BME280;65625;52.136;5.424;2023-02-15T01:11:14;103024.75;;;0.65;91.31
76694;BME280;65625;52.136;5.424;2023-02-15T01:13:41;103036.28;;;0.61;91.58
76694;BME280;65625;52.136;5.424;2023-02-15T01:16:08;103025.66;;;0.55;91.03
76694;BME280;65625;52.136;5.424;2023-02-15T01:18:35;103023.88;;;0.51;91.40
76694;BME280;65625;52.136;5.424;2023-02-15T01:21:11;103016.78;;;0.47;90.82
76694;BME280;65625;52.136;5.424;2023-02-15T01:23:42;103009.72;;;0.46;91.03
76694;BME280;65625;52.136;5.424;2023-02-15T01:26:12;103012.38;;;0.46;91.39
76694;BME280;65625;52.136;5.424;2023-02-15T01:28:38;102999.97;;;0.42;91.22
76694;BME280;65625;52.136;5.424;2023-02-15T01:31:07;103000.88;;;0.41;90.77
76694;BME280;65625;52.136;5.424;2023-02-15T01:33:35;102995.56;;;0.41;91.44
76694;BME280;65625;52.136;5.424;2023-02-15T01:36:03;102995.56;;;0.38;91.40
76694;BME280;65625;52.136;5.424;2023-02-15T01:38:31;102999.06;;;0.39;91.38
76694;BME280;65625;52.136;5.424;2023-02-15T01:40:58;102999.06;;;0.37;91.02
76694;BME280;65625;52.136;5.424;2023-02-15T01:43:59;102996.41;;;0.36;91.09
76694;BME280;65625;52.136;5.424;2023-02-15T01:46:30;102990.22;;;0.32;91.11
76694;BME280;65625;52.136;5.424;2023-02-15T01:49:03;102990.22;;;0.31;90.90
76694;BME280;65625;52.136;5.424;2023-02-15T01:51:35;102976.94;;;0.28;90.80
76694;BME280;65625;52.136;5.424;2023-02-15T01:54:10;102974.28;;;0.28;91.16
76694;BME280;65625;52.136;5.424;2023-02-15T01:56:39;102978.72;;;0.26;91.46
76694;BME280;65625;52.136;5.424;2023-02-15T01:59:11;102976.03;;;0.27;91.63
76694;BME280;65625;52.136;5.424;2023-02-15T02:01:40;102982.25;;;0.26;91.51
76694;BME280;65625;52.136;5.424;2023-02-15T02:04:18;102976.91;;;0.20;90.94
76694;BME280;65625;52.136;5.424;2023-02-15T02:06:50;102971.59;;;0.19;91.20
76694;BME280;65625;52.136;5.424;2023-02-15T02:09:17;102979.56;;;0.19;91.24
76694;BME280;65625;52.136;5.424;2023-02-15T02:11:46;102978.72;;;0.17;91.11
76694;BME280;65625;52.136;5.424;2023-02-15T02:14:14;102967.19;;;0.12;91.33
76694;BME280;65625;52.136;5.424;2023-02-15T02:25:17;102963.66;;;0.08;91.51
76694;BME280;65625;52.136;5.424;2023-02-15T02:36:14;102945.94;;;0.04;91.87
76694;BME280;65625;52.136;5.424;2023-02-15T02:39:19;102946.84;;;0.05;91.38
76694;BME280;65625;52.136;5.424;2023-02-15T02:41:56;102938.88;;;0.03;91.26
76694;BME280;65625;52.136;5.424;2023-02-15T02:44:38;102933.56;;;0.00;91.99
76694;BME280;65625;52.136;5.424;2023-02-15T02:47:19;102931.78;;;-0.03;92.02
76694;BME280;65625;52.136;5.424;2023-02-15T02:49:52;102929.97;;;-0.07;91.21
76694;BME280;65625;52.136;5.424;2023-02-15T02:52:42;102927.34;;;-0.11;91.24
76694;BME280;65625;52.136;5.424;2023-02-15T02:55:49;102922.94;;;-0.15;91.75
76694;BME280;65625;52.136;5.424;2023-02-15T02:58:59;102922.03;;;-0.17;91.70
76694;BME280;65625;52.136;5.424;2023-02-15T03:01:54;102918.47;;;-0.19;91.98
76694;BME280;65625;52.136;5.424;2023-02-15T03:04:33;102915.81;;;-0.22;91.52
76694;BME280;65625;52.136;5.424;2023-02-15T03:07:03;102918.47;;;-0.24;92.23
76694;BME280;65625;52.136;5.424;2023-02-15T03:09:38;102913.19;;;-0.25;91.96
76694;BME280;65625;52.136;5.424;2023-02-15T03:12:29;102915.81;;;-0.24;92.21
76694;BME280;65625;52.136;5.424;2023-02-15T03:15:11;102910.53;;;-0.24;91.77
76694;BME280;65625;52.136;5.424;2023-02-15T03:17:44;102899.00;;;-0.27;91.73
76694;BME280;65625;52.136;5.424;2023-02-15T03:20:18;102900.78;;;-0.28;91.85
76694;BME280;65625;52.136;5.424;2023-02-15T03:22:53;102893.69;;;-0.32;92.39
76694;BME280;65625;52.136;5.424;2023-02-15T03:25:25;102896.34;;;-0.32;91.96
76694;BME280;65625;52.136;5.424;2023-02-15T03:27:58;102884.84;;;-0.34;92.41
76694;BME280;65625;52.136;5.424;2023-02-15T03:30:26;102887.50;;;-0.35;91.98
76694;BME280;65625;52.136;5.424;2023-02-15T03:32:56;102890.13;;;-0.38;92.29
76694;BME280;65625;52.136;5.424;2023-02-15T03:35:40;102891.03;;;-0.41;92.03
76694;BME280;65625;52.136;5.424;2023-02-15T03:38:12;102892.78;;;-0.44;91.77
76694;BME280;65625;52.136;5.424;2023-02-15T03:40:43;102881.28;;;-0.46;92.52
76694;BME280;65625;52.136;5.424;2023-02-15T03:43:38;102885.69;;;-0.48;91.80
76694;BME280;65625;52.136;5.424;2023-02-15T03:46:22;102885.69;;;-0.50;92.11
76694;BME280;65625;52.136;5.424;2023-02-15T03:48:56;102883.03;;;-0.53;91.81
76694;BME280;65625;52.136;5.424;2023-02-15T03:51:29;102877.72;;;-0.54;92.18
76694;BME280;65625;52.136;5.424;2023-02-15T03:54:24;102879.47;;;-0.55;91.96
76694;BME280;65625;52.136;5.424;2023-02-15T03:57:23;102883.88;;;-0.57;92.26
76694;BME280;65625;52.136;5.424;2023-02-15T04:00:15;102883.88;;;-0.57;92.15
76694;BME280;65625;52.136;5.424;2023-02-15T04:05:42;102872.41;;;-0.57;92.49
76694;BME280;65625;52.136;5.424;2023-02-15T04:08:10;102870.63;;;-0.58;92.09
76694;BME280;65625;52.136;5.424;2023-02-15T04:10:37;102867.97;;;-0.63;92.33
76694;BME280;65625;52.136;5.424;2023-02-15T04:13:20;102868.88;;;-0.67;92.34
76694;BME280;65625;52.136;5.424;2023-02-15T04:15:47;102871.47;;;-0.68;92.50
76694;BME280;65625;52.136;5.424;2023-02-15T04:18:37;102865.31;;;-0.70;92.19
76694;BME280;65625;52.136;5.424;2023-02-15T04:21:24;102866.19;;;-0.71;91.94
76694;BME280;65625;52.136;5.424;2023-02-15T04:24:10;102867.97;;;-0.72;92.34
76694;BME280;65625;52.136;5.424;2023-02-15T04:26:55;102861.78;;;-0.72;92.08
76694;BME280;65625;52.136;5.424;2023-02-15T04:29:23;102869.72;;;-0.72;92.38
76694;BME280;65625;52.136;5.424;2023-02-15T04:31:51;102874.13;;;-0.73;92.67
76694;BME280;65625;52.136;5.424;2023-02-15T04:34:18;102872.38;;;-0.74;92.45
76694;BME280;65625;52.136;5.424;2023-02-15T04:36:45;102873.22;;;-0.76;92.34
76694;BME280;65625;52.136;5.424;2023-02-15T04:39:15;102866.16;;;-0.77;92.27
76694;BME280;65625;52.136;5.424;2023-02-15T04:41:42;102859.97;;;-0.78;92.34
76694;BME280;65625;52.136;5.424;2023-02-15T04:44:11;102858.22;;;-0.77;92.44
76694;BME280;65625;52.136;5.424;2023-02-15T04:46:37;102847.63;;;-0.79;92.75
76694;BME280;65625;52.136;5.424;2023-02-15T04:49:04;102852.91;;;-0.80;92.76
76694;BME280;65625;52.136;5.424;2023-02-15T04:51:31;102844.06;;;-0.84;92.28
76694;BME280;65625;52.136;5.424;2023-02-15T04:53:57;102849.38;;;-0.84;92.59
76694;BME280;65625;52.136;5.424;2023-02-15T04:56:24;102845.81;;;-0.84;92.46
76694;BME280;65625;52.136;5.424;2023-02-15T04:58:50;102840.53;;;-0.84;92.49
76694;BME280;65625;52.136;5.424;2023-02-15T05:01:17;102838.75;;;-0.84;92.93
76694;BME280;65625;52.136;5.424;2023-02-15T05:03:44;102837.88;;;-0.84;92.77
76694;BME280;65625;52.136;5.424;2023-02-15T05:06:10;102849.34;;;-0.87;92.38
76694;BME280;65625;52.136;5.424;2023-02-15T05:08:37;102836.97;;;-0.91;92.40
76694;BME280;65625;52.136;5.424;2023-02-15T05:11:03;102846.66;;;-0.93;92.67
76694;BME280;65625;52.136;5.424;2023-02-15T05:13:30;102841.38;;;-0.91;92.22
76694;BME280;65625;52.136;5.424;2023-02-15T05:15:57;102836.06;;;-0.91;93.04
76694;BME280;65625;52.136;5.424;2023-02-15T05:18:23;102837.81;;;-0.93;92.57
76694;BME280;65625;52.136;5.424;2023-02-15T05:20:50;102825.47;;;-0.94;92.77
76694;BME280;65625;52.136;5.424;2023-02-15T05:23:16;102835.16;;;-0.93;92.68
76694;BME280;65625;52.136;5.424;2023-02-15T05:25:47;102829.88;;;-0.95;92.57
76694;BME280;65625;52.136;5.424;2023-02-15T05:28:33;102830.75;;;-0.96;92.73
76694;BME280;65625;52.136;5.424;2023-02-15T05:31:07;102829.00;;;-0.95;93.02
76694;BME280;65625;52.136;5.424;2023-02-15T05:33:36;102831.66;;;-0.97;92.80
76694;BME280;65625;52.136;5.424;2023-02-15T05:36:03;102837.81;;;-0.98;92.87
76694;BME280;65625;52.136;5.424;2023-02-15T05:38:31;102829.88;;;-0.99;92.75
76694;BME280;65625;52.136;5.424;2023-02-15T05:40:58;102836.91;;;-0.98;92.88
76694;BME280;65625;52.136;5.424;2023-02-15T05:43:25;102837.81;;;-0.96;92.93
76694;BME280;65625;52.136;5.424;2023-02-15T05:45:53;102836.97;;;-0.95;93.01
76694;BME280;65625;52.136;5.424;2023-02-15T05:48:22;102836.06;;;-0.96;93.12
76694;BME280;65625;52.136;5.424;2023-02-15T05:51:02;102838.72;;;-0.97;92.89
76694;BME280;65625;52.136;5.424;2023-02-15T05:53:31;102837.81;;;-0.99;92.85
76694;BME280;65625;52.136;5.424;2023-02-15T05:55:58;102831.63;;;-1.03;92.84
76694;BME280;65625;52.136;5.424;2023-02-15T05:58:34;102837.81;;;-1.05;92.82
76694;BME280;65625;52.136;5.424;2023-02-15T06:01:12;102838.66;;;-1.06;93.00
76694;BME280;65625;52.136;5.424;2023-02-15T06:03:40;102832.50;;;-1.07;92.63
76694;BME280;65625;52.136;5.424;2023-02-15T06:06:07;102829.81;;;-1.08;92.89
76694;BME280;65625;52.136;5.424;2023-02-15T06:08:34;102833.34;;;-1.09;92.93
76694;BME280;65625;52.136;5.424;2023-02-15T06:11:01;102827.16;;;-1.10;92.89
76694;BME280;65625;52.136;5.424;2023-02-15T06:13:28;102833.34;;;-1.11;92.94
76694;BME280;65625;52.136;5.424;2023-02-15T06:15:54;102828.94;;;-1.10;92.98
76694;BME280;65625;52.136;5.424;2023-02-15T06:18:21;102822.75;;;-1.11;92.51
76694;BME280;65625;52.136;5.424;2023-02-15T06:20:48;102829.81;;;-1.11;92.84
76694;BME280;65625;52.136;5.424;2023-02-15T06:23:14;102821.84;;;-1.13;92.85
76694;BME280;65625;52.136;5.424;2023-02-15T06:25:41;102816.56;;;-1.13;92.89
76694;BME280;65625;52.136;5.424;2023-02-15T06:28:08;102811.25;;;-1.14;92.94
76694;BME280;65625;52.136;5.424;2023-02-15T06:30:34;102817.44;;;-1.17;92.97
76694;BME280;65625;52.136;5.424;2023-02-15T06:33:01;102818.31;;;-1.16;92.73
76694;BME280;65625;52.136;5.424;2023-02-15T06:35:27;102817.41;;;-1.18;92.71
76694;BME280;65625;52.136;5.424;2023-02-15T06:37:54;102814.75;;;-1.18;92.96
76694;BME280;65625;52.136;5.424;2023-02-15T06:40:20;102820.94;;;-1.16;93.07
76694;BME280;65625;52.136;5.424;2023-02-15T06:42:47;102813.91;;;-1.14;93.10
76694;BME280;65625;52.136;5.424;2023-02-15T06:45:13;102818.34;;;-1.12;92.81
76694;BME280;65625;52.136;5.424;2023-02-15T06:47:40;102818.34;;;-1.10;93.04
76694;BME280;65625;52.136;5.424;2023-02-15T06:50:07;102817.47;;;-1.08;93.09
76694;BME280;65625;52.136;5.424;2023-02-15T06:52:34;102818.34;;;-1.07;93.26
76694;BME280;65625;52.136;5.424;2023-02-15T06:55:01;102818.34;;;-1.07;93.14
76694;BME280;65625;52.136;5.424;2023-02-15T06:57:27;102823.66;;;-1.07;93.15
76694;BME280;65625;52.136;5.424;2023-02-15T06:59:54;102814.81;;;-1.05;92.77
76694;BME280;65625;52.136;5.424;2023-02-15T07:02:21;102812.16;;;-1.03;93.04
76694;BME280;65625;52.136;5.424;2023-02-15T07:04:47;102816.63;;;-1.01;92.68
76694;BME280;65625;52.136;5.424;2023-02-15T07:07:14;102813.09;;;-0.97;92.91
76694;BME280;65625;52.136;5.424;2023-02-15T07:09:40;102817.53;;;-0.93;93.03
76694;BME280;65625;52.136;5.424;2023-02-15T07:12:07;102816.66;;;-0.87;92.70
76694;BME280;65625;52.136;5.424;2023-02-15T07:14:52;102812.25;;;-0.79;92.55
76694;BME280;65625;52.136;5.424;2023-02-15T07:17:19;102818.47;;;-0.74;92.64
76694;BME280;65625;52.136;5.424;2023-02-15T07:20:12;102814.06;;;-0.66;92.22
76694;BME280;65625;52.136;5.424;2023-02-15T07:22:39;102817.59;;;-0.60;92.78
76694;BME280;65625;52.136;5.424;2023-02-15T07:25:07;102814.09;;;-0.50;92.32
76694;BME280;65625;52.136;5.424;2023-02-15T07:27:34;102811.47;;;-0.39;92.58
76694;BME280;65625;52.136;5.424;2023-02-15T07:30:02;102796.41;;;-0.28;92.01
76694;BME280;65625;52.136;5.424;2023-02-15T07:32:30;102796.44;;;-0.16;92.00
76694;BME280;65625;52.136;5.424;2023-02-15T07:34:58;102791.13;;;-0.09;92.05
76694;BME280;65625;52.136;5.424;2023-02-15T07:37:25;102784.03;;;0.01;92.20
76694;BME280;65625;52.136;5.424;2023-02-15T07:39:52;102782.25;;;0.09;92.05
76694;BME280;65625;52.136;5.424;2023-02-15T07:42:19;102767.19;;;0.17;92.07
76694;BME280;65625;52.136;5.424;2023-02-15T07:44:53;102770.72;;;0.28;91.48
76694;BME280;65625;52.136;5.424;2023-02-15T07:47:22;102772.47;;;0.37;91.77
76694;BME280;65625;52.136;5.424;2023-02-15T07:49:48;102774.22;;;0.42;91.25
76694;BME280;65625;52.136;5.424;2023-02-15T07:52:15;102771.56;;;0.48;91.40
76694;BME280;65625;52.136;5.424;2023-02-15T07:54:42;102769.75;;;0.58;90.86
76694;BME280;65625;52.136;5.424;2023-02-15T07:57:08;102769.72;;;0.68;91.29
76694;BME280;65625;52.136;5.424;2023-02-15T07:59:35;102764.31;;;0.80;91.11
76694;BME280;65625;52.136;5.424;2023-02-15T08:02:01;102762.53;;;0.90;91.58
76694;BME280;65625;52.136;5.424;2023-02-15T08:04:28;102764.22;;;1.01;90.92
76694;BME280;65625;52.136;5.424;2023-02-15T08:06:54;102760.59;;;1.14;91.21
76694;BME280;65625;52.136;5.424;2023-02-15T08:09:21;102757.00;;;1.24;90.96
76694;BME280;65625;52.136;5.424;2023-02-15T08:11:48;102756.06;;;1.33;91.70
76694;BME280;65625;52.136;5.424;2023-02-15T08:14:17;102753.31;;;1.42;91.27
76694;BME280;65625;52.136;5.424;2023-02-15T08:19:23;102752.28;;;1.63;90.62
76694;BME280;65625;52.136;5.424;2023-02-15T08:21:52;102752.22;;;1.70;90.81
76694;BME280;65625;52.136;5.424;2023-02-15T08:24:21;102761.88;;;1.83;91.30
76694;BME280;65625;52.136;5.424;2023-02-15T08:26:48;102753.69;;;2.03;91.09
76694;BME280;65625;52.136;5.424;2023-02-15T08:29:18;102748.19;;;2.21;90.75
76694;BME280;65625;52.136;5.424;2023-02-15T08:31:45;102752.41;;;2.40;91.00
76694;BME280;65625;52.136;5.424;2023-02-15T08:34:15;102748.66;;;2.56;91.04
76694;BME280;65625;52.136;5.424;2023-02-15T08:36:43;102739.63;;;2.68;90.98
76694;BME280;65625;52.136;5.424;2023-02-15T08:39:11;102745.75;;;2.76;90.66
76694;BME280;65625;52.136;5.424;2023-02-15T08:41:39;102743.81;;;2.88;90.04
76694;BME280;65625;52.136;5.424;2023-02-15T08:44:07;102736.53;;;3.01;90.25
76694;BME280;65625;52.136;5.424;2023-02-15T08:46:36;102736.28;;;3.19;90.23
76694;BME280;65625;52.136;5.424;2023-02-15T08:49:03;102723.59;;;3.33;89.85
76694;BME280;65625;52.136;5.424;2023-02-15T08:51:32;102731.41;;;3.45;89.29
76694;BME280;65625;52.136;5.424;2023-02-15T08:54:03;102727.59;;;3.59;89.15
76694;BME280;65625;52.136;5.424;2023-02-15T08:56:36;102724.81;;;3.68;88.46
76694;BME280;65625;52.136;5.424;2023-02-15T08:59:04;102715.88;;;3.69;88.47
76694;BME280;65625;52.136;5.424;2023-02-15T09:01:32;102722.84;;;3.78;88.24
76694;BME280;65625;52.136;5.424;2023-02-15T09:04:09;102723.56;;;3.87;88.16
76694;BME280;65625;52.136;5.424;2023-02-15T09:06:37;102718.78;;;4.06;87.82
76694;BME280;65625;52.136;5.424;2023-02-15T09:09:05;102714.81;;;4.27;87.50
76694;BME280;65625;52.136;5.424;2023-02-15T09:11:39;102706.53;;;4.40;86.74
76694;BME280;65625;52.136;5.424;2023-02-15T09:14:18;102709.06;;;4.46;86.44
76694;BME280;65625;52.136;5.424;2023-02-15T09:16:47;102708.72;;;4.63;86.85
76694;BME280;65625;52.136;5.424;2023-02-15T09:19:17;102700.91;;;5.32;85.33
76694;BME280;65625;52.136;5.424;2023-02-15T09:21:46;102696.09;;;7.05;81.67
76694;BME280;65625;52.136;5.424;2023-02-15T09:24:14;102684.63;;;8.78;76.86
76694;BME280;65625;52.136;5.424;2023-02-15T09:26:43;102687.91;;;9.94;71.90
76694;BME280;65625;52.136;5.424;2023-02-15T09:29:12;102693.34;;;10.34;68.42
76694;BME280;65625;52.136;5.424;2023-02-15T09:31:41;102678.34;;;11.04;64.70
76694;BME280;65625;52.136;5.424;2023-02-15T09:34:13;102671.88;;;11.25;64.00
76694;BME280;65625;52.136;5.424;2023-02-15T09:36:40;102693.44;;;10.71;65.08
76694;BME280;65625;52.136;5.424;2023-02-15T09:39:16;102689.47;;;9.58;67.03
76694;BME280;65625;52.136;5.424;2023-02-15T09:41:53;102689.22;;;9.42;69.31
76694;BME280;65625;52.136;5.424;2023-02-15T09:52:32;102674.31;;;11.13;64.14
76694;BME280;65625;52.136;5.424;2023-02-15T09:58:05;102668.66;;;12.72;58.87
76694;BME280;65625;52.136;5.424;2023-02-15T10:03:39;102673.03;;;12.25;58.08
76694;BME280;65625;52.136;5.424;2023-02-15T10:09:10;102684.22;;;12.52;58.17
76694;BME280;65625;52.136;5.424;2023-02-15T10:23:03;102671.16;;;13.24;52.64
76694;BME280;65625;52.136;5.424;2023-02-15T10:25:59;102677.72;;;13.04;54.65
76694;BME280;65625;52.136;5.424;2023-02-15T10:31:27;102689.91;;;14.19;52.82
76694;BME280;65625;52.136;5.424;2023-02-15T10:34:23;102682.59;;;15.19;50.24
76694;BME280;65625;52.136;5.424;2023-02-15T10:37:25;102674.91;;;15.25;48.62
76694;BME280;65625;52.136;5.424;2023-02-15T10:43:11;102683.31;;;15.76;47.36
76694;BME280;65625;52.136;5.424;2023-02-15T10:48:30;102679.28;;;15.69;48.52
76694;BME280;65625;52.136;5.424;2023-02-15T10:51:03;102666.75;;;16.05;47.07
76694;BME280;65625;52.136;5.424;2023-02-15T10:56:46;102674.78;;;15.55;47.82
76694;BME280;65625;52.136;5.424;2023-02-15T10:59:34;102671.28;;;15.92;47.21
76694;BME280;65625;52.136;5.424;2023-02-15T11:02:31;102667.50;;;16.47;45.81
76694;BME280;65625;52.136;5.424;2023-02-15T11:05:20;102653.22;;;16.56;44.80
76694;BME280;65625;52.136;5.424;2023-02-15T11:07:52;102647.59;;;17.31;43.98
76694;BME280;65625;52.136;5.424;2023-02-15T11:12:57;102645.25;;;17.74;41.93
76694;BME280;65625;52.136;5.424;2023-02-15T11:15:39;102647.75;;;16.56;43.15
76694;BME280;65625;52.136;5.424;2023-02-15T11:21:09;102642.47;;;16.15;45.07
76694;BME280;65625;52.136;5.424;2023-02-15T11:23:41;102643.97;;;15.41;46.09
76694;BME280;65625;52.136;5.424;2023-02-15T11:26:33;102638.84;;;14.67;48.01
76694;BME280;65625;52.136;5.424;2023-02-15T11:29:18;102638.56;;;13.70;50.11
76694;BME280;65625;52.136;5.424;2023-02-15T11:31:54;102640.94;;;12.67;53.51
76694;BME280;65625;52.136;5.424;2023-02-15T11:34:33;102646.19;;;12.38;54.87
76694;BME280;65625;52.136;5.424;2023-02-15T11:37:11;102623.22;;;12.93;54.50
76694;BME280;65625;52.136;5.424;2023-02-15T11:39:39;102624.38;;;13.20;54.27
76694;BME280;65625;52.136;5.424;2023-02-15T11:42:11;102617.72;;;13.10;53.51
76694;BME280;65625;52.136;5.424;2023-02-15T11:44:49;102616.19;;;12.58;54.83
76694;BME280;65625;52.136;5.424;2023-02-15T11:47:20;102613.38;;;12.27;56.13
76694;BME280;65625;52.136;5.424;2023-02-15T11:49:47;102602.06;;;12.03;57.22
76694;BME280;65625;52.136;5.424;2023-02-15T11:52:14;102596.50;;;12.06;58.80
76694;BME280;65625;52.136;5.424;2023-02-15T11:54:45;102584.38;;;12.13;58.20
76694;BME280;65625;52.136;5.424;2023-02-15T11:59:40;102582.16;;;12.37;57.74
76694;BME280;65625;52.136;5.424;2023-02-15T12:02:16;102572.28;;;12.36;57.37
76694;BME280;65625;52.136;5.424;2023-02-15T12:04:48;102575.22;;;12.16;57.70
76694;BME280;65625;52.136;5.424;2023-02-15T12:07:22;102566.91;;;12.19;58.44
76694;BME280;65625;52.136;5.424;2023-02-15T12:10:10;102577.72;;;12.03;59.39
76694;BME280;65625;52.136;5.424;2023-02-15T12:12:43;102566.75;;;11.89;59.24
76694;BME280;65625;52.136;5.424;2023-02-15T12:15:12;102571.72;;;11.97;59.38
76694;BME280;65625;52.136;5.424;2023-02-15T12:17:41;102568.72;;;12.03;58.57
76694;BME280;65625;52.136;5.424;2023-02-15T12:22:48;102567.00;;;11.85;59.49
76694;BME280;65625;52.136;5.424;2023-02-15T12:25:27;102559.06;;;11.97;60.61
76694;BME280;65625;52.136;5.424;2023-02-15T12:27:55;102558.59;;;12.06;59.63
76694;BME280;65625;52.136;5.424;2023-02-15T12:30:27;102561.03;;;12.11;59.89
76694;BME280;65625;52.136;5.424;2023-02-15T12:33:07;102560.56;;;12.20;59.55
76694;BME280;65625;52.136;5.424;2023-02-15T12:35:40;102553.41;;;12.34;59.37
76694;BME280;65625;52.136;5.424;2023-02-15T12:40:35;102547.03;;;12.35;59.29
76694;BME280;65625;52.136;5.424;2023-02-15T12:43:02;102545.31;;;12.50;59.29
76694;BME280;65625;52.136;5.424;2023-02-15T12:45:36;102542.63;;;12.50;58.48
76694;BME280;65625;52.136;5.424;2023-02-15T12:48:15;102544.88;;;12.57;59.40
76694;BME280;65625;52.136;5.424;2023-02-15T12:50:46;102535.78;;;12.58;58.47
76694;BME280;65625;52.136;5.424;2023-02-15T12:53:33;102532.13;;;12.59;58.77
76694;BME280;65625;52.136;5.424;2023-02-15T12:56:03;102533.00;;;12.44;58.80
76694;BME280;65625;52.136;5.424;2023-02-15T12:58:40;102528.91;;;12.20;59.23
76694;BME280;65625;52.136;5.424;2023-02-15T13:01:18;102542.63;;;12.17;60.02
76694;BME280;65625;52.136;5.424;2023-02-15T13:04:03;102535.47;;;12.16;60.64
76694;BME280;65625;52.136;5.424;2023-02-15T13:06:33;102534.72;;;11.97;60.19
76694;BME280;65625;52.136;5.424;2023-02-15T13:09:15;102535.47;;;11.67;60.71
76694;BME280;65625;52.136;5.424;2023-02-15T13:11:45;102532.78;;;11.49;60.98
76694;BME280;65625;52.136;5.424;2023-02-15T13:14:27;102522.69;;;11.53;61.49
76694;BME280;65625;52.136;5.424;2023-02-15T13:16:57;102522.34;;;11.59;61.90
76694;BME280;65625;52.136;5.424;2023-02-15T13:19:34;102510.38;;;11.65;62.12
76694;BME280;65625;52.136;5.424;2023-02-15T13:22:05;102501.91;;;11.71;61.86
76694;BME280;65625;52.136;5.424;2023-02-15T13:24:56;102514.31;;;11.75;61.83
76694;BME280;65625;52.136;5.424;2023-02-15T13:27:29;102510.03;;;11.71;62.38
76694;BME280;65625;52.136;5.424;2023-02-15T13:30:02;102505.72;;;11.67;62.47
76694;BME280;65625;52.136;5.424;2023-02-15T13:32:34;102503.59;;;11.73;63.26
76694;BME280;65625;52.136;5.424;2023-02-15T13:35:04;102511.63;;;11.75;63.22
76694;BME280;65625;52.136;5.424;2023-02-15T13:43:19;102503.34;;;11.78;63.39
76694;BME280;65625;52.136;5.424;2023-02-15T13:49:30;102499.66;;;11.79;62.65
76694;BME280;65625;52.136;5.424;2023-02-15T14:08:42;102486.13;;;11.79;62.14
76694;BME280;65625;52.136;5.424;2023-02-15T14:14:11;102488.63;;;11.66;63.18
76694;BME280;65625;52.136;5.424;2023-02-15T14:22:28;102494.56;;;11.56;63.42
76694;BME280;65625;52.136;5.424;2023-02-15T14:30:48;102480.34;;;11.52;62.79
76694;BME280;65625;52.136;5.424;2023-02-15T14:33:38;102480.75;;;11.44;62.81
76694;BME280;65625;52.136;5.424;2023-02-15T14:36:07;102486.88;;;11.48;62.95
76694;BME280;65625;52.136;5.424;2023-02-15T14:38:56;102482.66;;;11.42;63.06
76694;BME280;65625;52.136;5.424;2023-02-15T14:41:48;102484.56;;;11.40;62.99
76694;BME280;65625;52.136;5.424;2023-02-15T14:44:31;102480.84;;;11.43;63.16
76694;BME280;65625;52.136;5.424;2023-02-15T14:47:09;102473.03;;;11.37;62.80
76694;BME280;65625;52.136;5.424;2023-02-15T14:49:39;102476.78;;;11.34;63.04
76694;BME280;65625;52.136;5.424;2023-02-15T14:52:10;102479.56;;;11.33;63.71
76694;BME280;65625;52.136;5.424;2023-02-15T15:04:38;102479.38;;;11.02;65.29
76694;BME280;65625;52.136;5.424;2023-02-15T15:07:14;102469.84;;;10.95;65.59
76694;BME280;65625;52.136;5.424;2023-02-15T15:09:45;102483.59;;;10.90;65.58
76694;BME280;65625;52.136;5.424;2023-02-15T15:12:43;102491.13;;;10.84;65.00
76694;BME280;65625;52.136;5.424;2023-02-15T15:15:32;102486.91;;;10.78;66.13
76694;BME280;65625;52.136;5.424;2023-02-15T15:18:09;102477.31;;;10.73;65.97
76694;BME280;65625;52.136;5.424;2023-02-15T15:20:44;102474.75;;;10.70;66.19
76694;BME280;65625;52.136;5.424;2023-02-15T15:25:45;102482.91;;;10.68;66.71
76694;BME280;65625;52.136;5.424;2023-02-15T15:34:09;102477.97;;;10.59;66.83
76694;BME280;65625;52.136;5.424;2023-02-15T15:42:48;102473.16;;;10.47;66.91